Kezdőlap
METAR-TAF:

METAR-TAF

Repülőterek :

Haugesund, Norvégia

földrajzi szélesség: 59-21N, földrajzi hosszúság: 005-13E, magasság: 2 m

Jelenlegi meteorológiai megfigyelések

A jelentés 14 perccel ezelõtt készült, 12:20 UTC
Dél-délkeleti szél 12 kt
Hőmérséklet 19°C
Páratartalom 64%
Légköri nyomás 1019 hPa
Látótávolság 10 km, vagy több
Kevés felhő 1600 lábon
Szakadozott felhőzet 4800 lábon

METAR: ENHD 191220Z 16012KT 9999 FEW016 BKN048 19/12 Q1019

Idő: 14:34 (12:34 UTC)

Előrejelzés

A jelentés 1 órával és 34 perccel ezelõtt készült, 11:00 UTC
Az előrejelzés 19-én 12 óra UTC és 19-én 21 óra UTC között érvényes
Déli szél 15 kt
Látótávolság 10 km, vagy több
Kevés felhő 1500 lábon
Szakadozott felhőzet 4500 lábon

TAF: ENHD 191100Z 1912/1921 17015KT 9999 FEW015 BKN045

Meteorológiai megfigyelések és előrejelzések több, mint 4000 repülőtéren (METAR és TAF jelentéseket).

A térképen piros és sárga pontok jelzik az elérhető meteorológiai állomásokat.

Mozgassa az egeret a pont fölött, hogy megjelenjen az állomás neve.

Azután kattintson az időjárási megfigyelések és előrejelzések megtekintéséhez.

A térkép megváltoztatása: kattintson a fekete keresztel jelölt zöld gombra ráközelítéshez, a vonallal jelölt zöld gombra távolításhoz, vagy a zöld nyilakra a szomszédos térképek eléréséhez.


METAR-TAF: